createdAt,value
2022-10-01T00:02:07.333Z,97419.00
2022-10-01T00:04:34.874Z,97417.09
2022-10-01T00:07:04.591Z,97412.50
2022-10-01T00:09:31.792Z,97406.75
2022-10-01T00:11:59.764Z,97396.50
2022-10-01T00:14:26.969Z,97399.34
2022-10-01T00:16:53.451Z,97396.50
2022-10-01T00:19:19.808Z,97386.88
2022-10-01T00:21:46.168Z,97385.19
2022-10-01T00:24:12.535Z,97379.97
2022-10-01T00:26:39.461Z,97389.56
2022-10-01T00:29:07.062Z,97381.13
2022-10-01T00:31:33.747Z,97374.28
2022-10-01T00:34:00.570Z,97377.25
2022-10-01T00:36:26.921Z,97372.59
2022-10-01T00:38:53.322Z,97370.19
2022-10-01T00:41:19.683Z,97363.81
2022-10-01T00:43:46.767Z,97366.13
2022-10-01T00:46:21.146Z,97361.31
2022-10-01T00:48:50.633Z,97360.25
2022-10-01T00:51:16.954Z,97353.69
2022-10-01T00:53:43.322Z,97346.63
2022-10-01T00:56:09.648Z,97336.34
2022-10-01T00:58:36.033Z,97342.09
2022-10-01T01:01:02.384Z,97338.91
2022-10-01T01:03:28.759Z,97342.03
2022-10-01T01:05:55.067Z,97332.63
2022-10-01T01:08:21.369Z,97334.53
2022-10-01T01:10:56.775Z,97329.06
2022-10-01T01:13:24.649Z,97331.16
2022-10-01T01:16:09.078Z,97326.81
2022-10-01T01:18:36.901Z,97324.47
2022-10-01T01:21:08.416Z,97319.09
2022-10-01T01:23:44.773Z,97317.75
2022-10-01T01:26:11.120Z,97317.09
2022-10-01T01:28:40.827Z,97315.84
2022-10-01T01:31:08.191Z,97309.56
2022-10-01T01:33:34.947Z,97307.72
2022-10-01T01:36:04.515Z,97304.81
2022-10-01T01:38:33.126Z,97300.94
2022-10-01T01:41:00.425Z,97292.63
2022-10-01T01:43:29.360Z,97275.72
2022-10-01T01:45:55.782Z,97278.06
2022-10-01T01:48:22.546Z,97289.94
2022-10-01T01:51:00.861Z,97280.09
2022-10-01T01:53:30.615Z,97273.69
2022-10-01T01:55:57.867Z,97265.38
2022-10-01T01:58:26.157Z,97267.78
2022-10-01T02:00:52.508Z,97267.84
2022-10-01T02:03:21.995Z,97264.22
2022-10-01T02:05:52.326Z,97259.03
2022-10-01T02:08:36.857Z,97254.69
2022-10-01T02:11:15.414Z,97249.03
2022-10-01T02:13:48.037Z,97241.84
2022-10-01T02:16:18.791Z,97239.31
2022-10-01T02:18:57.569Z,97249.44
2022-10-01T02:21:24.218Z,97237.97
2022-10-01T02:24:01.194Z,97237.16
2022-10-01T02:26:28.015Z,97229.16
2022-10-01T02:28:55.287Z,97219.31
2022-10-01T02:31:22.672Z,97213.78
2022-10-01T02:33:49.304Z,97221.72
2022-10-01T02:36:15.629Z,97216.19
2022-10-01T02:38:42.168Z,97207.44
2022-10-01T02:41:09.236Z,97202.34
2022-10-01T02:43:41.968Z,97188.50
2022-10-01T02:46:29.473Z,97182.97
2022-10-01T02:48:55.781Z,97186.25
2022-10-01T02:51:26.978Z,97175.63
2022-10-01T02:53:55.641Z,97167.75
2022-10-01T02:56:48.542Z,97161.16
2022-10-01T02:59:15.217Z,97163.50
2022-10-01T03:01:41.995Z,97166.63
2022-10-01T03:04:08.360Z,97174.19
2022-10-01T03:06:35.738Z,97167.81
2022-10-01T03:09:02.103Z,97161.84
2022-10-01T03:11:28.411Z,97160.25
2022-10-01T03:13:54.795Z,97156.25
2022-10-01T03:16:21.279Z,97148.72
2022-10-01T03:18:47.640Z,97145.47
2022-10-01T03:21:14.030Z,97140.00
2022-10-01T03:23:40.333Z,97142.63
2022-10-01T03:26:06.684Z,97144.22
2022-10-01T03:28:32.991Z,97140.53
2022-10-01T03:31:06.169Z,97140.91
2022-10-01T03:33:32.515Z,97137.81
2022-10-01T03:35:58.823Z,97129.81
2022-10-01T03:38:25.137Z,97123.75
2022-10-01T03:40:51.435Z,97126.47
2022-10-01T03:43:17.913Z,97114.41
2022-10-01T03:45:44.324Z,97118.34
2022-10-01T03:48:10.658Z,97104.91
2022-10-01T03:50:36.955Z,97109.44
2022-10-01T03:53:03.261Z,97100.72
2022-10-01T03:55:29.586Z,97093.16
2022-10-01T03:57:55.938Z,97097.59
2022-10-01T04:00:22.249Z,97081.84
2022-10-01T04:02:48.686Z,97078.16
2022-10-01T04:05:15.154Z,97070.56
2022-10-01T04:07:41.829Z,97072.69
2022-10-01T04:10:08.378Z,97086.44
2022-10-01T04:12:34.710Z,97057.59
2022-10-01T04:15:01.011Z,97059.13
2022-10-01T04:17:27.326Z,97048.50
2022-10-01T04:19:53.630Z,97042.53
2022-10-01T04:22:19.946Z,97039.03
2022-10-01T04:24:46.263Z,97025.56
2022-10-01T04:27:12.570Z,97020.41
2022-10-01T04:29:40.371Z,97010.47
2022-10-01T04:32:07.125Z,97003.81
2022-10-01T04:34:52.230Z,97003.44
2022-10-01T04:37:18.930Z,96998.66
2022-10-01T04:39:45.244Z,97003.44
2022-10-01T04:42:13.321Z,96990.78
2022-10-01T04:44:39.773Z,96999.13
2022-10-01T04:47:06.518Z,96984.50
2022-10-01T04:49:33.476Z,96986.06
2022-10-01T04:52:00.102Z,96994.72
2022-10-01T04:54:26.442Z,96988.75
2022-10-01T04:56:52.871Z,96983.28
2022-10-01T04:59:19.497Z,96987.47
2022-10-01T05:01:45.992Z,96983.53
2022-10-01T05:04:12.851Z,96981.88
2022-10-01T05:06:39.409Z,96974.81
2022-10-01T05:09:05.723Z,96975.91
2022-10-01T05:11:32.371Z,96958.16
2022-10-01T05:13:58.897Z,96959.75
2022-10-01T05:16:25.360Z,96952.69
2022-10-01T05:18:51.758Z,96953.50
2022-10-01T05:21:18.075Z,96962.09
2022-10-01T05:23:44.438Z,96951.47
2022-10-01T05:26:11.119Z,96945.50
2022-10-01T05:28:38.361Z,96954.97
2022-10-01T05:31:04.770Z,96956.56
2022-10-01T05:33:31.271Z,96954.91
2022-10-01T05:35:58.013Z,96956.97
2022-10-01T05:38:25.066Z,96938.38
2022-10-01T05:40:51.502Z,96956.53
2022-10-01T05:43:18.648Z,96949.88
2022-10-01T05:45:45.220Z,96947.09
2022-10-01T05:48:12.768Z,96949.38
2022-10-01T05:50:40.208Z,96954.84
2022-10-01T05:53:06.982Z,96941.94
2022-10-01T05:55:34.390Z,96946.19
2022-10-01T05:58:01.523Z,96943.84
2022-10-01T06:00:29.071Z,96933.53
2022-10-01T06:02:56.366Z,96938.00
2022-10-01T06:05:22.891Z,96939.50
2022-10-01T06:07:49.329Z,96938.69
2022-10-01T06:10:15.880Z,96938.69
2022-10-01T06:12:43.415Z,96945.47
2022-10-01T06:15:09.935Z,96943.16
2022-10-01T06:17:36.285Z,96938.31
2022-10-01T06:20:02.595Z,96945.50
2022-10-01T06:22:28.912Z,96950.56
2022-10-01T06:24:56.773Z,96942.72
2022-10-01T06:27:23.240Z,96939.16
2022-10-01T06:29:49.548Z,96942.63
2022-10-01T06:32:19.655Z,96940.38
2022-10-01T06:34:45.962Z,96934.75
2022-10-01T06:37:12.295Z,96936.41
2022-10-01T06:39:38.611Z,96935.13
2022-10-01T06:42:04.951Z,96934.06
2022-10-01T06:44:31.249Z,96945.81
2022-10-01T06:46:57.578Z,96929.69
2022-10-01T06:49:24.222Z,96939.97
2022-10-01T06:52:09.432Z,96942.34
2022-10-01T06:54:35.830Z,96948.81
2022-10-01T06:57:02.406Z,96954.97
2022-10-01T06:59:31.022Z,96956.56
2022-10-01T07:01:57.436Z,96953.44
2022-10-01T07:04:23.782Z,96959.03
2022-10-01T07:06:50.104Z,96960.94
2022-10-01T07:09:16.701Z,96958.22
2022-10-01T07:11:43.026Z,96953.81
2022-10-01T07:14:09.382Z,96948.69
2022-10-01T07:16:37.780Z,96955.09
2022-10-01T07:19:04.127Z,96952.03
2022-10-01T07:21:30.445Z,96946.44
2022-10-01T07:23:56.761Z,96944.47
2022-10-01T07:26:23.069Z,96945.25
2022-10-01T07:28:49.382Z,96955.22
2022-10-01T07:31:15.768Z,96959.09
2022-10-01T07:33:42.091Z,96953.94
2022-10-01T07:36:08.764Z,96950.41
2022-10-01T07:38:35.107Z,96948.03
2022-10-01T07:41:02.808Z,96956.09
2022-10-01T07:43:29.602Z,96955.28
2022-10-01T07:45:58.142Z,96952.91
2022-10-01T07:48:24.855Z,96949.31
2022-10-01T07:50:51.237Z,96952.91
2022-10-01T07:53:17.693Z,96949.75
2022-10-01T07:55:45.059Z,96944.22
2022-10-01T07:58:14.383Z,96941.91
2022-10-01T08:00:41.377Z,96951.84
2022-10-01T08:03:08.714Z,96945.88
2022-10-01T08:05:35.247Z,96951.47
2022-10-01T08:08:05.907Z,96940.09
2022-10-01T08:10:36.169Z,96947.25
2022-10-01T08:13:04.685Z,96946.88
2022-10-01T08:15:30.981Z,96946.59
2022-10-01T08:18:00.392Z,96942.25
2022-10-01T08:20:26.705Z,96947.09
2022-10-01T08:22:53.055Z,96947.53
2022-10-01T08:25:19.367Z,96949.56
2022-10-01T08:27:45.728Z,96960.19
2022-10-01T08:30:12.119Z,96961.75
2022-10-01T08:32:38.453Z,96960.31
2022-10-01T08:35:05.080Z,96956.72
2022-10-01T08:37:31.478Z,96954.84
2022-10-01T08:39:57.777Z,96965.53
2022-10-01T08:42:33.391Z,96969.16
2022-10-01T08:45:01.414Z,96971.06
2022-10-01T08:47:49.427Z,96979.78
2022-10-01T08:50:29.254Z,96977.50
2022-10-01T08:52:57.128Z,96980.00
2022-10-01T08:55:24.527Z,96975.69
2022-10-01T08:57:58.695Z,96976.91
2022-10-01T09:00:25.007Z,96980.88
2022-10-01T09:02:52.815Z,96982.88
2022-10-01T09:05:27.281Z,96988.47
2022-10-01T09:07:53.578Z,96984.16
2022-10-01T09:10:24.728Z,96996.94
2022-10-01T09:13:13.598Z,96994.88
2022-10-01T09:15:46.863Z,96996.13
2022-10-01T09:18:22.336Z,96996.03
2022-10-01T09:20:53.452Z,96997.78
2022-10-01T09:23:20.169Z,96999.81
2022-10-01T09:25:50.274Z,96999.88
2022-10-01T09:28:19.239Z,96999.84
2022-10-01T09:30:49.872Z,97003.38
2022-10-01T09:33:17.306Z,97009.09
2022-10-01T09:35:48.409Z,97007.81
2022-10-01T09:38:19.251Z,97003.94
2022-10-01T09:40:55.711Z,97011.16
2022-10-01T09:43:34.961Z,97010.03
2022-10-01T09:46:02.158Z,97020.38
2022-10-01T09:48:28.733Z,97018.84
2022-10-01T09:50:58.211Z,97029.94
2022-10-01T09:53:26.424Z,97024.09
2022-10-01T09:55:54.194Z,97030.47
2022-10-01T09:58:21.518Z,97034.03
2022-10-01T10:00:51.429Z,97040.81
2022-10-01T10:03:24.737Z,97048.75
2022-10-01T10:05:51.283Z,97040.53
2022-10-01T10:08:23.898Z,97049.38
2022-10-01T10:11:09.269Z,97046.19
2022-10-01T10:13:43.269Z,97047.41
2022-10-01T10:16:14.920Z,97047.88
2022-10-01T10:18:41.273Z,97046.34
2022-10-01T10:21:14.414Z,97044.75
2022-10-01T10:23:50.822Z,97053.56
2022-10-01T10:26:32.052Z,97047.19
2022-10-01T10:28:59.282Z,97063.50
2022-10-01T10:31:26.813Z,97072.66
2022-10-01T10:34:13.589Z,97061.97
2022-10-01T10:36:40.495Z,97066.81
2022-10-01T10:39:07.162Z,97072.34
2022-10-01T10:41:33.747Z,97068.06
2022-10-01T10:44:00.758Z,97069.63
2022-10-01T10:46:29.587Z,97062.94
2022-10-01T10:49:00.686Z,97072.91
2022-10-01T10:51:28.199Z,97073.75
2022-10-01T10:53:54.850Z,97073.78
2022-10-01T10:56:22.786Z,97073.81
2022-10-01T10:58:49.930Z,97083.06
2022-10-01T11:01:18.676Z,97077.16
2022-10-01T11:03:48.856Z,97072.03
2022-10-01T11:06:15.237Z,97073.19
2022-10-01T11:08:42.042Z,97065.72
2022-10-01T11:11:17.463Z,97066.53
2022-10-01T11:13:49.538Z,97064.56
2022-10-01T11:16:34.534Z,97061.03
2022-10-01T11:19:19.951Z,97064.22
2022-10-01T11:21:58.580Z,97065.00
2022-10-01T11:24:29.703Z,97067.78
2022-10-01T11:26:58.826Z,97065.00
2022-10-01T11:29:25.137Z,97075.34
2022-10-01T11:32:10.408Z,97068.19
2022-10-01T11:34:48.692Z,97062.22
2022-10-01T11:37:21.392Z,97062.22
2022-10-01T11:39:47.703Z,97066.19
2022-10-01T11:42:17.898Z,97062.59
2022-10-01T11:44:47.255Z,97065.81
2022-10-01T11:47:15.570Z,97067.78
2022-10-01T11:49:57.240Z,97071.75
2022-10-01T11:52:26.610Z,97053.41
2022-10-01T11:54:56.436Z,97054.97
2022-10-01T11:57:41.859Z,97052.59
2022-10-01T12:00:08.661Z,97057.34
2022-10-01T12:02:35.774Z,97051.72
2022-10-01T12:05:15.248Z,97054.06
2022-10-01T12:07:55.621Z,97050.19
2022-10-01T12:10:43.026Z,97057.75
2022-10-01T12:13:15.921Z,97054.19
2022-10-01T12:15:49.266Z,97062.59
2022-10-01T12:18:31.981Z,97057.84
2022-10-01T12:21:01.705Z,97059.41
2022-10-01T12:23:32.451Z,97068.91
2022-10-01T12:26:13.609Z,97056.91
2022-10-01T12:28:42.186Z,97066.53
2022-10-01T12:31:12.479Z,97060.16
2022-10-01T12:33:51.224Z,97064.53
2022-10-01T12:36:17.492Z,97061.34
2022-10-01T12:38:43.792Z,97076.91
2022-10-01T12:41:19.218Z,97078.94
2022-10-01T12:43:51.603Z,97075.31
2022-10-01T12:46:21.263Z,97076.53
2022-10-01T12:49:03.953Z,97067.75
2022-10-01T12:51:37.130Z,97092.81
2022-10-01T12:54:13.607Z,97100.78
2022-10-01T12:56:49.085Z,97107.56
2022-10-01T12:59:28.199Z,97110.34
2022-10-01T13:01:58.143Z,97109.16
2022-10-01T13:04:36.834Z,97114.34
2022-10-01T13:07:08.227Z,97115.09
2022-10-01T13:09:53.320Z,97109.94
2022-10-01T13:12:19.585Z,97111.91
2022-10-01T13:14:45.964Z,97119.47
2022-10-01T13:17:15.541Z,97119.09
2022-10-01T13:19:45.172Z,97127.06
2022-10-01T13:22:32.383Z,97125.47
2022-10-01T13:25:07.906Z,97127.44
2022-10-01T13:27:36.136Z,97129.84
2022-10-01T13:30:07.707Z,97129.03
2022-10-01T13:32:50.788Z,97123.03
2022-10-01T13:35:24.392Z,97118.63
2022-10-01T13:37:50.738Z,97138.19
2022-10-01T13:40:37.324Z,97130.56
2022-10-01T13:43:18.189Z,97135.28
2022-10-01T13:45:45.199Z,97128.97
2022-10-01T13:48:11.744Z,97137.25
2022-10-01T13:50:38.568Z,97141.53
2022-10-01T13:53:15.441Z,97140.28
2022-10-01T13:55:42.193Z,97148.63
2022-10-01T13:58:27.402Z,97150.94
2022-10-01T14:00:54.400Z,97151.47
2022-10-01T14:03:42.111Z,97167.59
2022-10-01T14:06:14.211Z,97173.56
2022-10-01T14:08:54.467Z,97173.19
2022-10-01T14:11:42.891Z,97182.78
2022-10-01T14:14:31.004Z,97177.97
2022-10-01T14:16:57.351Z,97245.28
2022-10-01T14:19:24.478Z,97279.16
2022-10-01T14:21:53.903Z,97268.69
2022-10-01T14:24:35.996Z,97261.03
2022-10-01T14:27:04.240Z,97252.78
2022-10-01T14:29:39.615Z,97265.41
2022-10-01T14:32:05.917Z,97255.75
2022-10-01T14:35:04.711Z,97251.53
2022-10-01T14:37:31.095Z,97263.47
2022-10-01T14:40:17.453Z,97269.84
2022-10-01T14:42:43.858Z,97271.28
2022-10-01T14:45:14.413Z,97262.47
2022-10-01T14:47:40.754Z,97263.31
2022-10-01T14:50:11.033Z,97254.88
2022-10-01T14:52:37.346Z,97274.78
2022-10-01T14:55:07.009Z,97269.84
2022-10-01T14:57:40.249Z,97265.19
2022-10-01T15:00:09.820Z,97275.22
2022-10-01T15:02:43.195Z,97269.34
2022-10-01T15:05:18.050Z,97271.84
2022-10-01T15:07:47.090Z,97265.59
2022-10-01T15:10:16.132Z,97257.00
2022-10-01T15:12:48.884Z,97255.84
2022-10-01T15:15:16.161Z,97268.59
2022-10-01T15:17:42.484Z,97269.38
2022-10-01T15:20:09.172Z,97271.38
2022-10-01T15:22:35.481Z,97270.97
2022-10-01T15:25:01.883Z,97269.84
2022-10-01T15:27:28.910Z,97274.97
2022-10-01T15:29:56.696Z,97281.22
2022-10-01T15:32:23.612Z,97279.97
2022-10-01T15:34:51.011Z,97284.81
2022-10-01T15:37:18.142Z,97295.97
2022-10-01T15:39:45.915Z,97299.97
2022-10-01T15:42:28.474Z,97314.44
2022-10-01T15:45:06.748Z,97314.16
2022-10-01T15:47:34.040Z,97314.91
2022-10-01T15:50:04.731Z,97313.31
2022-10-01T15:52:54.101Z,97318.78
2022-10-01T15:55:23.446Z,97330.91
2022-10-01T15:57:50.649Z,97334.69
2022-10-01T16:00:20.314Z,97336.75
2022-10-01T16:02:46.628Z,97347.03
2022-10-01T16:05:13.985Z,97344.69
2022-10-01T16:07:40.489Z,97363.28
2022-10-01T16:10:33.419Z,97372.50
2022-10-01T16:12:59.742Z,97382.69
2022-10-01T16:15:26.987Z,97382.34
2022-10-01T16:17:54.322Z,97387.91
2022-10-01T16:20:34.215Z,97382.13
2022-10-01T16:23:19.715Z,97402.03
2022-10-01T16:25:46.406Z,97406.97
2022-10-01T16:28:28.941Z,97398.94
2022-10-01T16:30:55.553Z,97410.47
2022-10-01T16:33:21.866Z,97409.31
2022-10-01T16:35:48.259Z,97407.66
2022-10-01T16:38:14.645Z,97411.88
2022-10-01T16:40:42.133Z,97425.28
2022-10-01T16:43:09.764Z,97430.31
2022-10-01T16:45:36.887Z,97432.66
2022-10-01T16:48:05.722Z,97444.38
2022-10-01T16:50:32.030Z,97444.06
2022-10-01T16:53:01.234Z,97450.22
2022-10-01T16:55:31.299Z,97449.50
2022-10-01T16:57:57.673Z,97456.81
2022-10-01T17:00:25.301Z,97458.78
2022-10-01T17:02:52.115Z,97470.56
2022-10-01T17:05:20.117Z,97468.25
2022-10-01T17:07:46.643Z,97476.94
2022-10-01T17:10:13.533Z,97473.72
2022-10-01T17:12:42.869Z,97484.63
2022-10-01T17:15:13.004Z,97496.94
2022-10-01T17:17:39.390Z,97493.06
2022-10-01T17:20:05.762Z,97491.44
2022-10-01T17:22:32.076Z,97503.63
2022-10-01T17:24:58.559Z,97505.25
2022-10-01T17:27:24.868Z,97520.19
2022-10-01T17:29:52.083Z,97530.16
2022-10-01T17:32:18.578Z,97533.78
2022-10-01T17:34:45.319Z,97537.06
2022-10-01T17:37:11.646Z,97530.56
2022-10-01T17:39:38.068Z,97543.81
2022-10-01T17:42:04.379Z,97549.00
2022-10-01T17:44:30.873Z,97556.88
2022-10-01T17:46:57.173Z,97566.00
2022-10-01T17:49:23.583Z,97563.97
2022-10-01T17:51:49.974Z,97573.84
2022-10-01T17:54:16.432Z,97573.16
2022-10-01T17:56:44.086Z,97569.09
2022-10-01T17:59:10.847Z,97574.69
2022-10-01T18:01:37.276Z,97579.50
2022-10-01T18:04:05.527Z,97582.28
2022-10-01T18:06:32.069Z,97579.25
2022-10-01T18:08:59.006Z,97579.09
2022-10-01T18:11:26.083Z,97591.59
2022-10-01T18:13:53.063Z,97606.59
2022-10-01T18:16:19.771Z,97611.69
2022-10-01T18:19:51.890Z,97617.84
2022-10-01T18:21:32.938Z,97617.50
2022-10-01T18:24:03.419Z,97635.38
2022-10-01T18:26:31.494Z,97633.75
2022-10-01T18:28:57.983Z,97647.56
2022-10-01T18:31:27.322Z,97645.94
2022-10-01T18:33:54.451Z,97647.41
2022-10-01T18:36:20.986Z,97642.97
2022-10-01T18:38:47.791Z,97644.78
2022-10-01T18:41:17.922Z,97650.06
2022-10-01T18:43:45.883Z,97655.59
2022-10-01T18:46:14.909Z,97651.34
2022-10-01T18:48:48.182Z,97658.81
2022-10-01T18:51:26.878Z,97663.47
2022-10-01T18:54:05.871Z,97664.13
2022-10-01T18:56:35.715Z,97672.22
2022-10-01T18:59:06.415Z,97675.28
2022-10-01T19:01:39.834Z,97675.66
2022-10-01T19:04:09.401Z,97683.91
2022-10-01T19:06:44.857Z,97691.03
2022-10-01T19:09:17.951Z,97699.81
2022-10-01T19:11:44.330Z,97707.84
2022-10-01T19:14:29.406Z,97702.78
2022-10-01T19:17:12.442Z,97707.97
2022-10-01T19:19:38.725Z,97717.91
2022-10-01T19:22:15.263Z,97718.34
2022-10-01T19:24:47.338Z,97721.13
2022-10-01T19:27:14.324Z,97724.34
2022-10-01T19:30:15.925Z,97727.25
2022-10-01T19:32:43.761Z,97727.19
2022-10-01T19:35:15.801Z,97725.06
2022-10-01T19:37:52.003Z,97735.41
2022-10-01T19:40:22.778Z,97741.03
2022-10-01T19:42:51.603Z,97741.56
2022-10-01T19:45:17.908Z,97736.28
2022-10-01T19:47:45.875Z,97744.31
2022-10-01T19:50:15.470Z,97740.28
2022-10-01T19:52:45.042Z,97746.72
2022-10-01T19:55:13.015Z,97755.94
2022-10-01T19:57:40.027Z,97749.94
2022-10-01T20:00:12.262Z,97764.56
2022-10-01T20:02:58.211Z,97762.69
2022-10-01T20:05:28.949Z,97766.09
2022-10-01T20:08:14.078Z,97775.94
2022-10-01T20:10:52.660Z,97782.72
2022-10-01T20:13:31.050Z,97789.78
2022-10-01T20:16:04.783Z,97786.28
2022-10-01T20:18:37.624Z,97786.19
2022-10-01T20:21:09.913Z,97793.34
2022-10-01T20:23:38.689Z,97796.41
2022-10-01T20:26:08.084Z,97801.38
2022-10-01T20:28:52.184Z,97809.94
2022-10-01T20:31:18.757Z,97813.63
2022-10-01T20:33:51.632Z,97821.03
2022-10-01T20:36:17.950Z,97830.34
2022-10-01T20:38:49.209Z,97821.31
2022-10-01T20:41:17.013Z,97825.78
2022-10-01T20:43:46.115Z,97826.13
2022-10-01T20:46:25.409Z,97826.81
2022-10-01T20:48:53.499Z,97832.34
2022-10-01T20:51:24.164Z,97836.00
2022-10-01T20:53:55.632Z,97836.84
2022-10-01T20:56:23.700Z,97832.34
2022-10-01T20:58:54.162Z,97833.81
2022-10-01T21:01:21.518Z,97849.19
2022-10-01T21:03:49.500Z,97836.66
2022-10-01T21:06:21.031Z,97842.91
2022-10-01T21:08:49.745Z,97843.56
2022-10-01T21:11:18.360Z,97845.31
2022-10-01T21:13:47.307Z,97851.00
2022-10-01T21:16:16.699Z,97856.03
2022-10-01T21:18:43.274Z,97852.16
2022-10-01T21:21:18.654Z,97859.03
2022-10-01T21:24:04.822Z,97863.19
2022-10-01T21:26:31.450Z,97853.78
2022-10-01T21:28:57.710Z,97860.13
2022-10-01T21:31:42.559Z,97883.50
2022-10-01T21:34:12.966Z,97885.53
2022-10-01T21:36:53.917Z,97882.97
2022-10-01T21:39:33.283Z,97886.44
2022-10-01T21:42:09.968Z,97889.13
2022-10-01T21:44:45.387Z,97892.25
2022-10-01T21:47:17.823Z,97898.81
2022-10-01T21:49:47.345Z,97901.66
2022-10-01T21:52:21.351Z,97909.72
2022-10-01T21:55:06.440Z,97898.88
2022-10-01T21:57:54.774Z,97909.25
2022-10-01T22:00:23.922Z,97904.69
2022-10-01T22:02:50.236Z,97920.16
2022-10-01T22:05:23.339Z,97911.88
2022-10-01T22:07:52.786Z,97909.91
2022-10-01T22:10:24.503Z,97909.81
2022-10-01T22:12:51.787Z,97913.63
2022-10-01T22:15:27.231Z,97923.22
2022-10-01T22:17:53.730Z,97928.31
2022-10-01T22:20:20.448Z,97925.44
2022-10-01T22:22:46.808Z,97940.91
2022-10-01T22:25:13.702Z,97944.41
2022-10-01T22:27:44.081Z,97945.03
2022-10-01T22:30:48.673Z,97946.44
2022-10-01T22:33:33.733Z,97947.16
2022-10-01T22:36:02.272Z,97941.78
2022-10-01T22:38:42.738Z,97941.66
2022-10-01T22:41:35.385Z,97943.41
2022-10-01T22:44:17.979Z,97951.75
2022-10-01T22:46:58.676Z,97940.47
2022-10-01T22:49:28.093Z,97945.19
2022-10-01T22:52:13.252Z,97949.31
2022-10-01T22:54:48.599Z,97957.44
2022-10-01T22:57:19.110Z,97951.81
2022-10-01T22:59:54.496Z,97959.50
2022-10-01T23:02:30.110Z,97962.16
2022-10-01T23:05:11.228Z,97953.00
2022-10-01T23:07:37.490Z,97956.63
2022-10-01T23:10:15.257Z,97961.03
2022-10-01T23:12:47.126Z,97966.88
2022-10-01T23:15:16.267Z,97963.19
2022-10-01T23:17:45.104Z,97965.53
2022-10-01T23:20:11.614Z,97974.53
2022-10-01T23:22:44.192Z,97974.63
2022-10-01T23:25:19.720Z,97972.22
2022-10-01T23:27:55.489Z,97973.59
2022-10-01T23:30:21.877Z,97977.63
2022-10-01T23:33:08.168Z,97984.13
2022-10-01T23:35:42.809Z,97992.66
2022-10-01T23:38:24.182Z,97996.72
2022-10-01T23:40:51.809Z,97992.19
2022-10-01T23:43:28.327Z,97997.38
2022-10-01T23:46:05.424Z,97993.56
2022-10-01T23:48:35.064Z,97995.63
2022-10-01T23:51:02.469Z,98001.78
2022-10-01T23:53:37.792Z,98012.94
2022-10-01T23:56:42.659Z,98006.50
2022-10-01T23:59:16.090Z,98011.09
